sensor_id;sensor_type;location;lat;lon;timestamp;pressure;altitude;pressure_sealevel;temperature;humidity
33189;BME280;52601;53.070;10.600;2023-02-14T12:29:47;103088.16;;;25.22;41.69
33189;BME280;52601;53.070;10.600;2023-02-14T12:32:35;103091.22;;;23.34;44.16
33189;BME280;52601;53.070;10.600;2023-02-14T12:35:21;103094.06;;;23.45;45.60
33189;BME280;52601;53.070;10.600;2023-02-14T12:38:37;103086.50;;;23.09;46.33
33189;BME280;52601;53.070;10.600;2023-02-14T12:45:09;103074.47;;;23.71;44.23
33189;BME280;52601;53.070;10.600;2023-02-14T12:57:32;103064.88;;;24.72;42.76
33189;BME280;52601;53.070;10.600;2023-02-14T13:07:25;103045.34;;;25.44;41.43
33189;BME280;52601;53.070;10.600;2023-02-14T13:10:34;103060.00;;;24.52;42.02
33189;BME280;52601;53.070;10.600;2023-02-14T13:17:10;103037.56;;;25.16;41.59
33189;BME280;52601;53.070;10.600;2023-02-14T13:23:30;103020.78;;;26.20;39.82
33189;BME280;52601;53.070;10.600;2023-02-14T13:26:20;103015.88;;;26.93;38.41
33189;BME280;52601;53.070;10.600;2023-02-14T13:29:13;103032.09;;;24.42;42.02
33189;BME280;52601;53.070;10.600;2023-02-14T13:32:01;103017.63;;;25.44;40.93
33189;BME280;52601;53.070;10.600;2023-02-14T13:34:48;103001.81;;;26.78;39.44
33189;BME280;52601;53.070;10.600;2023-02-14T13:37:35;103006.09;;;25.89;40.33
33189;BME280;52601;53.070;10.600;2023-02-14T13:40:23;103005.25;;;25.41;41.53
33189;BME280;52601;53.070;10.600;2023-02-14T13:43:09;103003.06;;;25.23;41.77
33189;BME280;52601;53.070;10.600;2023-02-14T13:45:55;103001.06;;;24.38;41.53
33189;BME280;52601;53.070;10.600;2023-02-14T13:48:41;102989.94;;;23.13;45.14
33189;BME280;52601;53.070;10.600;2023-02-14T13:54:55;103003.72;;;23.47;45.02
33189;BME280;52601;53.070;10.600;2023-02-14T13:57:39;102993.47;;;22.99;45.03
33189;BME280;52601;53.070;10.600;2023-02-14T14:06:12;102996.56;;;23.48;43.98
33189;BME280;52601;53.070;10.600;2023-02-14T14:08:58;102998.31;;;23.88;44.28
33189;BME280;52601;53.070;10.600;2023-02-14T14:11:49;102987.91;;;23.16;43.92
33189;BME280;52601;53.070;10.600;2023-02-14T14:14:35;102962.22;;;22.85;45.06
33189;BME280;52601;53.070;10.600;2023-02-14T14:17:23;102971.16;;;21.39;47.44
33189;BME280;52601;53.070;10.600;2023-02-14T14:23:25;102976.53;;;23.92;44.04
33189;BME280;52601;53.070;10.600;2023-02-14T14:26:47;102972.78;;;23.15;44.54
33189;BME280;52601;53.070;10.600;2023-02-14T14:37:57;102964.81;;;21.71;47.79
33189;BME280;52601;53.070;10.600;2023-02-14T14:40:46;102963.28;;;21.67;47.21
33189;BME280;52601;53.070;10.600;2023-02-14T14:43:37;102970.03;;;18.51;53.67
33189;BME280;52601;53.070;10.600;2023-02-14T14:46:24;102969.00;;;17.30;56.96
33189;BME280;52601;53.070;10.600;2023-02-14T14:49:09;102969.72;;;16.65;59.15
33189;BME280;52601;53.070;10.600;2023-02-14T14:51:56;102975.09;;;16.14;60.82
33189;BME280;52601;53.070;10.600;2023-02-14T14:54:42;102959.91;;;15.69;62.83
33189;BME280;52601;53.070;10.600;2023-02-14T14:57:27;102961.94;;;14.76;66.17
33189;BME280;52601;53.070;10.600;2023-02-14T15:06:16;102963.88;;;13.36;73.03
33189;BME280;52601;53.070;10.600;2023-02-14T15:09:19;102954.69;;;13.54;73.19
33189;BME280;52601;53.070;10.600;2023-02-14T15:12:08;102957.06;;;13.28;73.87
33189;BME280;52601;53.070;10.600;2023-02-14T15:15:15;102949.16;;;13.28;75.22
33189;BME280;52601;53.070;10.600;2023-02-14T15:18:06;102950.56;;;13.02;75.97
33189;BME280;52601;53.070;10.600;2023-02-14T15:20:52;102943.31;;;12.74;79.03
33189;BME280;52601;53.070;10.600;2023-02-14T15:23:37;102942.63;;;12.66;79.59
33189;BME280;52601;53.070;10.600;2023-02-14T15:26:27;102946.56;;;12.85;78.40
33189;BME280;52601;53.070;10.600;2023-02-14T15:29:39;102949.72;;;12.61;79.35
33189;BME280;52601;53.070;10.600;2023-02-14T15:32:29;102947.53;;;12.40;81.46
33189;BME280;52601;53.070;10.600;2023-02-14T15:35:18;102943.44;;;12.25;81.37
33189;BME280;52601;53.070;10.600;2023-02-14T15:38:08;102953.69;;;11.93;82.93
33189;BME280;52601;53.070;10.600;2023-02-14T15:40:56;102941.41;;;11.93;84.55
33189;BME280;52601;53.070;10.600;2023-02-14T15:43:49;102940.56;;;11.91;84.64
33189;BME280;52601;53.070;10.600;2023-02-14T15:46:38;102932.97;;;11.73;85.10
33189;BME280;52601;53.070;10.600;2023-02-14T15:49:31;102929.91;;;11.47;86.13
33189;BME280;52601;53.070;10.600;2023-02-14T15:52:17;102938.00;;;11.34;87.67
33189;BME280;52601;53.070;10.600;2023-02-14T15:55:07;102938.34;;;11.11;88.84
33189;BME280;52601;53.070;10.600;2023-02-14T15:58:04;102933.47;;;10.84;90.84
33189;BME280;52601;53.070;10.600;2023-02-14T16:00:51;102946.88;;;10.63;92.22
33189;BME280;52601;53.070;10.600;2023-02-14T16:03:39;102941.47;;;10.75;92.19
33189;BME280;52601;53.070;10.600;2023-02-14T16:06:37;102941.75;;;10.54;91.61
33189;BME280;52601;53.070;10.600;2023-02-14T16:09:28;102941.97;;;10.35;92.16
33189;BME280;52601;53.070;10.600;2023-02-14T16:12:31;102933.25;;;10.32;93.29
33189;BME280;52601;53.070;10.600;2023-02-14T16:15:20;102943.75;;;10.30;93.26
33189;BME280;52601;53.070;10.600;2023-02-14T16:21:30;102944.94;;;9.99;95.65
33189;BME280;52601;53.070;10.600;2023-02-14T16:24:16;102928.56;;;9.76;97.13
33189;BME280;52601;53.070;10.600;2023-02-14T16:27:02;102939.19;;;9.56;98.58
33189;BME280;52601;53.070;10.600;2023-02-14T16:29:51;102928.00;;;9.42;99.39
33189;BME280;52601;53.070;10.600;2023-02-14T16:32:36;102938.50;;;9.36;100.00
33189;BME280;52601;53.070;10.600;2023-02-14T16:35:22;102937.59;;;9.39;100.00
33189;BME280;52601;53.070;10.600;2023-02-14T16:38:13;102931.63;;;9.19;100.00
33189;BME280;52601;53.070;10.600;2023-02-14T16:41:01;102949.19;;;9.03;100.00
33189;BME280;52601;53.070;10.600;2023-02-14T16:43:48;102950.13;;;8.87;100.00
33189;BME280;52601;53.070;10.600;2023-02-14T16:46:34;102945.75;;;8.92;100.00
33189;BME280;52601;53.070;10.600;2023-02-14T16:49:20;102949.31;;;8.79;100.00
33189;BME280;52601;53.070;10.600;2023-02-14T16:52:15;102942.41;;;8.63;100.00
33189;BME280;52601;53.070;10.600;2023-02-14T16:55:01;102941.63;;;8.49;100.00
33189;BME280;52601;53.070;10.600;2023-02-14T16:57:48;102943.34;;;8.39;100.00
33189;BME280;52601;53.070;10.600;2023-02-14T17:00:35;102947.75;;;8.25;100.00
33189;BME280;52601;53.070;10.600;2023-02-14T17:03:21;102946.88;;;8.14;100.00
33189;BME280;52601;53.070;10.600;2023-02-14T17:06:06;102949.47;;;8.22;100.00
33189;BME280;52601;53.070;10.600;2023-02-14T17:08:53;102947.75;;;8.21;100.00
33189;BME280;52601;53.070;10.600;2023-02-14T17:11:42;102958.25;;;8.07;100.00
33189;BME280;52601;53.070;10.600;2023-02-14T17:14:32;102953.00;;;8.04;100.00
33189;BME280;52601;53.070;10.600;2023-02-14T17:17:21;102947.81;;;7.83;100.00
33189;BME280;52601;53.070;10.600;2023-02-14T17:20:07;102945.22;;;7.65;100.00
33189;BME280;52601;53.070;10.600;2023-02-14T17:22:52;102941.72;;;7.69;100.00
33189;BME280;52601;53.070;10.600;2023-02-14T17:25:39;102940.84;;;7.68;100.00
33189;BME280;52601;53.070;10.600;2023-02-14T17:28:25;102941.72;;;7.72;100.00
33189;BME280;52601;53.070;10.600;2023-02-14T17:31:11;102945.19;;;7.56;100.00
33189;BME280;52601;53.070;10.600;2023-02-14T17:33:57;102939.97;;;7.54;100.00
33189;BME280;52601;53.070;10.600;2023-02-14T17:36:43;102940.00;;;7.53;100.00
33189;BME280;52601;53.070;10.600;2023-02-14T17:39:28;102943.47;;;7.49;100.00
33189;BME280;52601;53.070;10.600;2023-02-14T17:42:14;102948.66;;;7.46;100.00
33189;BME280;52601;53.070;10.600;2023-02-14T17:45:00;102941.72;;;7.51;100.00
33189;BME280;52601;53.070;10.600;2023-02-14T17:47:46;102937.34;;;7.32;100.00
33189;BME280;52601;53.070;10.600;2023-02-14T17:50:31;102941.72;;;7.31;100.00
33189;BME280;52601;53.070;10.600;2023-02-14T17:53:17;102939.94;;;7.17;100.00
33189;BME280;52601;53.070;10.600;2023-02-14T17:56:11;102935.59;;;7.14;100.00
33189;BME280;52601;53.070;10.600;2023-02-14T17:58:56;102940.81;;;7.13;100.00
33189;BME280;52601;53.070;10.600;2023-02-14T18:01:42;102931.25;;;7.06;100.00
33189;BME280;52601;53.070;10.600;2023-02-14T18:04:28;102934.69;;;6.95;100.00
33189;BME280;52601;53.070;10.600;2023-02-14T18:07:17;102931.19;;;6.89;100.00
33189;BME280;52601;53.070;10.600;2023-02-14T18:10:03;102932.03;;;6.79;100.00
33189;BME280;52601;53.070;10.600;2023-02-14T18:12:49;102941.63;;;6.87;100.00
33189;BME280;52601;53.070;10.600;2023-02-14T18:15:35;102938.13;;;6.82;100.00
33189;BME280;52601;53.070;10.600;2023-02-14T18:18:20;102932.78;;;6.51;100.00
33189;BME280;52601;53.070;10.600;2023-02-14T18:21:08;102945.84;;;6.54;100.00
33189;BME280;52601;53.070;10.600;2023-02-14T18:23:54;102946.66;;;6.44;100.00
33189;BME280;52601;53.070;10.600;2023-02-14T18:26:44;102942.25;;;6.31;100.00
33189;BME280;52601;53.070;10.600;2023-02-14T18:29:30;102928.38;;;6.30;100.00
33189;BME280;52601;53.070;10.600;2023-02-14T18:32:16;102930.94;;;6.24;100.00
33189;BME280;52601;53.070;10.600;2023-02-14T18:35:01;102934.31;;;6.11;100.00
33189;BME280;52601;53.070;10.600;2023-02-14T18:37:47;102928.25;;;6.17;100.00
33189;BME280;52601;53.070;10.600;2023-02-14T18:40:33;102932.59;;;6.10;100.00
33189;BME280;52601;53.070;10.600;2023-02-14T18:43:19;102915.13;;;5.97;100.00
33189;BME280;52601;53.070;10.600;2023-02-14T18:46:07;102929.00;;;5.93;100.00
33189;BME280;52601;53.070;10.600;2023-02-14T18:48:55;102933.31;;;5.89;100.00
33189;BME280;52601;53.070;10.600;2023-02-14T18:51:41;102927.94;;;5.73;100.00
33189;BME280;52601;53.070;10.600;2023-02-14T18:54:28;102923.53;;;5.61;100.00
33189;BME280;52601;53.070;10.600;2023-02-14T18:57:14;102920.81;;;5.46;100.00
33189;BME280;52601;53.070;10.600;2023-02-14T19:00:00;102912.97;;;5.42;100.00
33189;BME280;52601;53.070;10.600;2023-02-14T19:02:50;102918.16;;;5.43;100.00
33189;BME280;52601;53.070;10.600;2023-02-14T19:05:37;102907.75;;;5.39;100.00
33189;BME280;52601;53.070;10.600;2023-02-14T19:08:22;102898.06;;;5.22;100.00
33189;BME280;52601;53.070;10.600;2023-02-14T19:11:21;102909.25;;;5.17;100.00
33189;BME280;52601;53.070;10.600;2023-02-14T19:14:08;102904.97;;;5.22;100.00
33189;BME280;52601;53.070;10.600;2023-02-14T19:16:54;102915.38;;;5.23;100.00
33189;BME280;52601;53.070;10.600;2023-02-14T19:19:40;102904.91;;;5.13;100.00
33189;BME280;52601;53.070;10.600;2023-02-14T19:22:25;102902.31;;;5.17;100.00
33189;BME280;52601;53.070;10.600;2023-02-14T19:25:11;102897.00;;;5.02;100.00
33189;BME280;52601;53.070;10.600;2023-02-14T19:27:57;102896.22;;;5.12;100.00
33189;BME280;52601;53.070;10.600;2023-02-14T19:30:42;102890.97;;;5.08;100.00
33189;BME280;52601;53.070;10.600;2023-02-14T19:33:28;102902.25;;;5.10;100.00
33189;BME280;52601;53.070;10.600;2023-02-14T19:36:16;102891.69;;;4.93;100.00
33189;BME280;52601;53.070;10.600;2023-02-14T19:39:02;102894.06;;;4.71;100.00
33189;BME280;52601;53.070;10.600;2023-02-14T19:41:49;102897.53;;;4.71;100.00
33189;BME280;52601;53.070;10.600;2023-02-14T19:44:35;102882.03;;;4.82;100.00
33189;BME280;52601;53.070;10.600;2023-02-14T19:47:20;102884.59;;;4.77;100.00
33189;BME280;52601;53.070;10.600;2023-02-14T19:50:24;102885.47;;;4.79;100.00
33189;BME280;52601;53.070;10.600;2023-02-14T19:53:10;102887.97;;;4.69;100.00
33189;BME280;52601;53.070;10.600;2023-02-14T19:55:55;102878.41;;;4.63;100.00
33189;BME280;52601;53.070;10.600;2023-02-14T19:58:41;102885.09;;;4.43;100.00
33189;BME280;52601;53.070;10.600;2023-02-14T20:01:35;102875.53;;;4.39;100.00
33189;BME280;52601;53.070;10.600;2023-02-14T20:04:26;102879.75;;;4.34;100.00
33189;BME280;52601;53.070;10.600;2023-02-14T20:07:12;102875.44;;;4.33;100.00
33189;BME280;52601;53.070;10.600;2023-02-14T20:09:57;102875.34;;;4.25;100.00
33189;BME280;52601;53.070;10.600;2023-02-14T20:12:43;102874.31;;;4.13;100.00
33189;BME280;52601;53.070;10.600;2023-02-14T20:15:29;102871.66;;;4.10;100.00
33189;BME280;52601;53.070;10.600;2023-02-14T20:18:15;102865.66;;;4.12;100.00
33189;BME280;52601;53.070;10.600;2023-02-14T20:21:01;102842.81;;;3.86;100.00
33189;BME280;52601;53.070;10.600;2023-02-14T20:23:47;102856.63;;;3.86;100.00
33189;BME280;52601;53.070;10.600;2023-02-14T20:26:34;102849.91;;;3.99;100.00
33189;BME280;52601;53.070;10.600;2023-02-14T20:29:22;102849.09;;;4.03;100.00
33189;BME280;52601;53.070;10.600;2023-02-14T20:32:08;102844.78;;;4.05;100.00
33189;BME280;52601;53.070;10.600;2023-02-14T20:34:53;102842.03;;;3.93;100.00
33189;BME280;52601;53.070;10.600;2023-02-14T20:37:39;102850.44;;;3.74;100.00
33189;BME280;52601;53.070;10.600;2023-02-14T20:40:24;102834.00;;;3.76;100.00
33189;BME280;52601;53.070;10.600;2023-02-14T20:43:10;102840.06;;;3.74;100.00
33189;BME280;52601;53.070;10.600;2023-02-14T20:45:59;102840.72;;;3.62;100.00
33189;BME280;52601;53.070;10.600;2023-02-14T20:48:46;102837.69;;;3.32;100.00
33189;BME280;52601;53.070;10.600;2023-02-14T20:51:32;102828.75;;;3.15;100.00
33189;BME280;52601;53.070;10.600;2023-02-14T20:54:21;102836.50;;;3.12;100.00
33189;BME280;52601;53.070;10.600;2023-02-14T20:57:06;102827.88;;;3.14;100.00
33189;BME280;52601;53.070;10.600;2023-02-14T20:59:52;102834.06;;;3.22;100.00
33189;BME280;52601;53.070;10.600;2023-02-14T21:02:37;102841.78;;;3.19;100.00
33189;BME280;52601;53.070;10.600;2023-02-14T21:05:23;102840.19;;;3.27;100.00
33189;BME280;52601;53.070;10.600;2023-02-14T21:08:08;102834.22;;;3.33;100.00
33189;BME280;52601;53.070;10.600;2023-02-14T21:10:54;102837.03;;;3.48;100.00
33189;BME280;52601;53.070;10.600;2023-02-14T21:13:40;102838.78;;;3.47;100.00
33189;BME280;52601;53.070;10.600;2023-02-14T21:16:27;102834.44;;;3.46;100.00
33189;BME280;52601;53.070;10.600;2023-02-14T21:19:13;102837.81;;;3.39;100.00
33189;BME280;52601;53.070;10.600;2023-02-14T21:21:58;102821.34;;;3.36;100.00
33189;BME280;52601;53.070;10.600;2023-02-14T21:24:44;102828.22;;;3.35;100.00
33189;BME280;52601;53.070;10.600;2023-02-14T21:27:29;102807.13;;;3.13;100.00
33189;BME280;52601;53.070;10.600;2023-02-14T21:30:15;102824.38;;;3.12;100.00
33189;BME280;52601;53.070;10.600;2023-02-14T21:33:01;102820.97;;;3.13;100.00
33189;BME280;52601;53.070;10.600;2023-02-14T21:35:46;102814.81;;;3.08;100.00
33189;BME280;52601;53.070;10.600;2023-02-14T21:38:32;102813.81;;;2.99;100.00
33189;BME280;52601;53.070;10.600;2023-02-14T21:41:20;102815.34;;;2.86;100.00
33189;BME280;52601;53.070;10.600;2023-02-14T21:44:06;102812.00;;;2.93;100.00
33189;BME280;52601;53.070;10.600;2023-02-14T21:46:52;102797.31;;;2.92;100.00
33189;BME280;52601;53.070;10.600;2023-02-14T21:49:37;102790.81;;;2.68;100.00
33189;BME280;52601;53.070;10.600;2023-02-14T21:52:41;102799.53;;;2.73;100.00
33189;BME280;52601;53.070;10.600;2023-02-14T21:55:27;102802.91;;;2.69;100.00
33189;BME280;52601;53.070;10.600;2023-02-14T21:58:12;102806.34;;;2.68;100.00
33189;BME280;52601;53.070;10.600;2023-02-14T22:00:58;102803.75;;;2.66;100.00
33189;BME280;52601;53.070;10.600;2023-02-14T22:03:44;102795.75;;;2.54;100.00
33189;BME280;52601;53.070;10.600;2023-02-14T22:06:29;102808.38;;;2.37;100.00
33189;BME280;52601;53.070;10.600;2023-02-14T22:09:15;102802.88;;;2.21;100.00
33189;BME280;52601;53.070;10.600;2023-02-14T22:12:02;102801.19;;;2.23;100.00
33189;BME280;52601;53.070;10.600;2023-02-14T22:14:48;102791.66;;;2.20;100.00
33189;BME280;52601;53.070;10.600;2023-02-14T22:17:33;102796.06;;;2.24;100.00
33189;BME280;52601;53.070;10.600;2023-02-14T22:20:19;102785.44;;;2.11;100.00
33189;BME280;52601;53.070;10.600;2023-02-14T22:23:05;102788.81;;;2.07;100.00
33189;BME280;52601;53.070;10.600;2023-02-14T22:25:51;102787.84;;;2.03;100.00
33189;BME280;52601;53.070;10.600;2023-02-14T22:28:37;102786.69;;;1.88;100.00
33189;BME280;52601;53.070;10.600;2023-02-14T22:31:24;102781.59;;;1.91;100.00
33189;BME280;52601;53.070;10.600;2023-02-14T22:34:13;102784.56;;;2.10;100.00
33189;BME280;52601;53.070;10.600;2023-02-14T22:36:59;102762.84;;;2.02;100.00
33189;BME280;52601;53.070;10.600;2023-02-14T22:39:44;102776.72;;;2.07;100.00
33189;BME280;52601;53.070;10.600;2023-02-14T22:42:30;102778.66;;;2.17;100.00
33189;BME280;52601;53.070;10.600;2023-02-14T22:45:15;102766.78;;;1.85;100.00
33189;BME280;52601;53.070;10.600;2023-02-14T22:48:01;102765.34;;;1.99;100.00
33189;BME280;52601;53.070;10.600;2023-02-14T22:50:46;102764.75;;;2.11;100.00
33189;BME280;52601;53.070;10.600;2023-02-14T22:53:32;102761.09;;;2.01;100.00
33189;BME280;52601;53.070;10.600;2023-02-14T22:56:23;102765.56;;;2.10;100.00
33189;BME280;52601;53.070;10.600;2023-02-14T22:59:20;102762.66;;;2.36;100.00
33189;BME280;52601;53.070;10.600;2023-02-14T23:02:07;102756.41;;;2.27;100.00
33189;BME280;52601;53.070;10.600;2023-02-14T23:04:54;102750.44;;;2.31;100.00
33189;BME280;52601;53.070;10.600;2023-02-14T23:07:41;102764.16;;;2.27;100.00
33189;BME280;52601;53.070;10.600;2023-02-14T23:10:27;102745.81;;;2.15;100.00
33189;BME280;52601;53.070;10.600;2023-02-14T23:13:12;102746.56;;;2.08;100.00
33189;BME280;52601;53.070;10.600;2023-02-14T23:16:16;102749.88;;;2.01;100.00
33189;BME280;52601;53.070;10.600;2023-02-14T23:19:25;102745.66;;;2.06;100.00
33189;BME280;52601;53.070;10.600;2023-02-14T23:22:33;102752.28;;;1.92;100.00
33189;BME280;52601;53.070;10.600;2023-02-14T23:25:19;102753.53;;;2.12;100.00
33189;BME280;52601;53.070;10.600;2023-02-14T23:28:04;102731.94;;;2.08;100.00
33189;BME280;52601;53.070;10.600;2023-02-14T23:30:50;102747.53;;;2.13;100.00
33189;BME280;52601;53.070;10.600;2023-02-14T23:33:36;102740.59;;;2.12;100.00
33189;BME280;52601;53.070;10.600;2023-02-14T23:36:21;102744.06;;;2.12;100.00
33189;BME280;52601;53.070;10.600;2023-02-14T23:39:07;102732.16;;;2.20;100.00
33189;BME280;52601;53.070;10.600;2023-02-14T23:41:52;102728.56;;;2.14;100.00
33189;BME280;52601;53.070;10.600;2023-02-14T23:44:38;102728.69;;;2.20;100.00
33189;BME280;52601;53.070;10.600;2023-02-14T23:47:24;102721.84;;;2.23;100.00
33189;BME280;52601;53.070;10.600;2023-02-14T23:50:10;102718.34;;;2.20;100.00
33189;BME280;52601;53.070;10.600;2023-02-14T23:52:55;102730.50;;;2.24;100.00
33189;BME280;52601;53.070;10.600;2023-02-14T23:55:40;102731.25;;;2.18;100.00
33189;BME280;52601;53.070;10.600;2023-02-14T23:58:26;102724.16;;;2.08;100.00
